Report METAR

 

LIML - Milano/Linate, Italy
Distance from station: NO 27km
Dati ricevuti: 17/06/2024 21:50
Few Clouds
Few Clouds
 Vento da calmo
Vento: Calma
Temperatura: 25°C
P.to Rugiada: 17°C
Umidità: 61%
Barometro: 1016 hPa
Nuvole: Few Clouds
Visibility: 10 km
Cloud details: Few Clouds 1829 m
2024/06/17 19:50 LIML 171950Z 00000KT 9999 FEW060 25/17 Q1016 NOSIG
LIME - Bergamo/Orio Ser, Italy
Distance from station: NNE 43km
Dati ricevuti: 17/06/2024 21:50
Sereno
Sereno
 Vento da N
Vento: N 9 km/h
Temperatura: 23°C
P.to Rugiada: 16°C
Umidità: 65%
Barometro: 1017 hPa
Summary: Sereno
Visibility: superiore a 10 km
2024/06/17 19:50 LIME 171950Z 36005KT CAVOK 23/16 Q1017 NOSIG
 
LIMS - Piacenza, it-Afb, Italy
Distance from station: SSE 45km
Dati ricevuti: 17/06/2024 19:55
DATI Obsoleti
Few Clouds
Few Clouds
 Vento da NE
Vento: NE 7 km/h
Temperatura: 28°C
Indice di Calore: 29°C
P.to Rugiada: 18°C
Umidità: 55%
Barometro: 1014 hPa
Nuvole: Few Clouds
Visibility: 10 km
Cloud details: Few Clouds 1219 m
2024/06/17 17:55 LIMS 171755Z 05004KT 9999 FEW040 28/18 Q1014
LIPO - Brescia/Montichi, Italy
Distance from station: ENE 65km
Dati ricevuti: 17/06/2024 21:50
Sereno
Sereno
 Vento da N
Vento: N 9 km/h
Temperatura: 24°C
P.to Rugiada: 18°C
Umidità: 69%
Barometro: 1016 hPa
Nuvole: Sereno
Visibility: 10 km
2024/06/17 19:50 LIPO 171950Z AUTO 01005KT 9999 NCD 24/18 Q1016